createdAt,value
2022-11-26T00:02:22.175Z,9.32
2022-11-26T00:06:32.622Z,15.38
2022-11-26T00:10:36.766Z,11.27
2022-11-26T00:14:40.873Z,8.77
2022-11-26T00:18:44.033Z,16.52
2022-11-26T00:22:50.166Z,11.13
2022-11-26T00:26:52.982Z,14.13
2022-11-26T00:30:59.392Z,11.68
2022-11-26T00:39:07.563Z,16.15
2022-11-26T00:43:12.152Z,17.40
2022-11-26T00:47:16.231Z,11.15
2022-11-26T00:51:21.529Z,10.40
2022-11-26T00:55:30.040Z,13.90
2022-11-26T00:59:32.797Z,8.80
2022-11-26T01:03:36.867Z,11.10
2022-11-26T01:07:40.461Z,11.38
2022-11-26T01:11:43.349Z,11.25
2022-11-26T01:15:46.096Z,12.75
2022-11-26T01:19:50.148Z,14.25
2022-11-26T01:23:53.175Z,13.15
2022-11-26T01:27:56.179Z,11.48
2022-11-26T01:31:59.115Z,11.82
2022-11-26T01:36:03.261Z,12.43
2022-11-26T01:40:36.910Z,19.48
2022-11-26T01:44:39.850Z,16.33
2022-11-26T01:48:43.085Z,11.40
2022-11-26T01:52:48.405Z,13.40
2022-11-26T01:56:53.402Z,13.13
2022-11-26T02:00:56.668Z,12.75
2022-11-26T02:05:06.338Z,8.95
2022-11-26T02:09:11.153Z,8.60
2022-11-26T02:13:14.022Z,10.40
2022-11-26T02:17:25.349Z,13.18
2022-11-26T02:21:29.160Z,7.68
2022-11-26T02:25:54.954Z,7.75
2022-11-26T02:30:05.954Z,14.82
2022-11-26T02:34:16.021Z,13.02
2022-11-26T02:38:21.949Z,10.23
2022-11-26T02:42:27.098Z,12.00
2022-11-26T02:46:31.216Z,12.93
2022-11-26T02:50:37.597Z,10.93
2022-11-26T02:58:45.173Z,10.57
2022-11-26T03:02:52.025Z,13.55
2022-11-26T03:06:57.180Z,12.88
2022-11-26T03:10:59.985Z,11.88
2022-11-26T03:15:02.725Z,15.48
2022-11-26T03:19:07.150Z,10.60
2022-11-26T03:23:10.413Z,13.32
2022-11-26T03:27:13.126Z,7.88
2022-11-26T03:31:15.867Z,14.50
2022-11-26T03:35:20.303Z,11.43
2022-11-26T03:39:23.222Z,12.00
2022-11-26T03:43:26.016Z,13.90
2022-11-26T03:47:28.784Z,13.60
2022-11-26T03:51:32.881Z,9.23
2022-11-26T03:55:35.628Z,8.80
2022-11-26T03:59:38.490Z,16.00
2022-11-26T04:03:41.595Z,11.10
2022-11-26T04:07:45.744Z,17.55
2022-11-26T04:11:48.529Z,16.23
2022-11-26T04:15:51.498Z,13.75
2022-11-26T04:19:54.202Z,13.00
2022-11-26T04:23:58.286Z,11.98
2022-11-26T04:28:01.011Z,11.35
2022-11-26T04:32:04.038Z,11.32
2022-11-26T04:36:06.985Z,12.10
2022-11-26T04:40:12.617Z,15.20
2022-11-26T04:44:15.328Z,14.55
2022-11-26T04:48:18.062Z,10.40
2022-11-26T04:52:20.880Z,12.23
2022-11-26T04:56:25.114Z,11.10
2022-11-26T05:00:27.957Z,14.40
2022-11-26T05:04:31.349Z,10.50
2022-11-26T05:08:34.101Z,14.70
2022-11-26T05:12:38.308Z,11.88
2022-11-26T05:16:41.134Z,13.00
2022-11-26T05:20:44.016Z,12.65
2022-11-26T05:24:46.734Z,10.15
2022-11-26T05:28:50.991Z,9.85
2022-11-26T05:32:53.721Z,7.97
2022-11-26T05:36:56.445Z,14.35
2022-11-26T05:40:59.168Z,8.98
2022-11-26T05:45:03.249Z,9.35
2022-11-26T05:49:06.063Z,9.88
2022-11-26T05:53:08.868Z,9.07
2022-11-26T05:57:11.674Z,13.18
2022-11-26T06:01:15.738Z,13.73
2022-11-26T06:05:18.877Z,11.77
2022-11-26T06:09:21.728Z,13.85
2022-11-26T06:13:24.708Z,18.10
2022-11-26T06:17:28.943Z,8.65
2022-11-26T06:21:31.670Z,10.38
2022-11-26T06:25:34.531Z,11.65
2022-11-26T06:29:37.408Z,11.13
2022-11-26T06:33:41.489Z,12.60
2022-11-26T06:37:44.273Z,7.50
2022-11-26T06:41:47.030Z,7.82
2022-11-26T06:45:49.839Z,6.20
2022-11-26T06:49:54.197Z,7.65
2022-11-26T06:53:56.968Z,7.72
2022-11-26T06:57:59.671Z,5.32
2022-11-26T07:02:02.785Z,6.13
2022-11-26T07:06:15.631Z,5.40
2022-11-26T07:10:18.562Z,6.50
2022-11-26T07:14:22.345Z,5.75
2022-11-26T07:18:25.118Z,10.35
2022-11-26T07:22:29.221Z,7.03
2022-11-26T07:26:32.030Z,6.28
2022-11-26T07:30:34.777Z,4.82
2022-11-26T07:34:37.896Z,3.25
2022-11-26T07:38:42.107Z,5.78
2022-11-26T07:42:47.116Z,4.75
2022-11-26T07:46:54.827Z,4.40
2022-11-26T07:50:57.525Z,10.27
2022-11-26T07:55:01.584Z,5.15
2022-11-26T07:59:04.373Z,7.40
2022-11-26T08:03:07.165Z,6.63
2022-11-26T08:07:09.995Z,8.07
2022-11-26T08:11:15.999Z,6.45
2022-11-26T08:15:18.844Z,5.90
2022-11-26T08:19:21.662Z,5.82
2022-11-26T08:23:24.748Z,7.85
2022-11-26T08:27:28.812Z,7.35
2022-11-26T08:31:31.665Z,9.25
2022-11-26T08:36:05.009Z,8.50
2022-11-26T08:39:58.955Z,9.68
2022-11-26T08:44:07.801Z,9.23
2022-11-26T08:48:11.962Z,8.30
2022-11-26T08:52:14.683Z,5.30
2022-11-26T08:56:17.510Z,8.30
2022-11-26T09:00:22.332Z,5.80
2022-11-26T09:04:25.036Z,5.55
2022-11-26T09:08:27.923Z,5.93
2022-11-26T09:12:30.658Z,8.32
2022-11-26T09:16:35.309Z,8.05
2022-11-26T09:20:38.134Z,3.13
2022-11-26T09:24:41.311Z,6.45
2022-11-26T09:28:44.085Z,5.93
2022-11-26T09:32:48.301Z,7.95
2022-11-26T09:36:51.024Z,5.78
2022-11-26T09:41:04.108Z,9.80
2022-11-26T09:45:19.218Z,6.82
2022-11-26T09:49:23.871Z,8.80
2022-11-26T09:53:31.645Z,9.10
2022-11-26T09:57:40.712Z,8.45
2022-11-26T10:01:43.607Z,8.73
2022-11-26T10:05:59.111Z,6.95
2022-11-26T10:10:09.466Z,9.07
2022-11-26T10:14:26.594Z,7.47
2022-11-26T10:18:38.918Z,9.73
2022-11-26T10:22:56.715Z,9.88
2022-11-26T10:27:11.237Z,5.50
2022-11-26T10:31:22.150Z,9.40
2022-11-26T10:35:27.438Z,6.80
2022-11-26T10:39:31.940Z,8.77
2022-11-26T10:43:34.882Z,14.85
2022-11-26T10:47:37.845Z,13.25
2022-11-26T10:51:41.441Z,23.98
2022-11-26T10:55:46.177Z,14.65
2022-11-26T10:59:52.280Z,19.80
2022-11-26T11:04:13.875Z,12.18
2022-11-26T11:08:30.667Z,20.95
2022-11-26T11:16:42.317Z,18.35
2022-11-26T11:20:53.845Z,14.18
2022-11-26T11:24:58.591Z,11.32
2022-11-26T11:29:02.687Z,16.77
2022-11-26T11:33:19.845Z,18.73
2022-11-26T11:37:22.629Z,20.98
2022-11-26T11:41:30.096Z,17.33
2022-11-26T11:45:40.619Z,16.98
2022-11-26T11:49:59.466Z,27.40
2022-11-26T11:54:13.583Z,19.85
2022-11-26T11:58:31.145Z,12.85
2022-11-26T12:02:53.614Z,13.57
2022-11-26T12:07:16.353Z,24.90
2022-11-26T12:11:31.130Z,24.05
2022-11-26T12:15:38.334Z,10.25
2022-11-26T12:19:48.052Z,15.57
2022-11-26T12:23:56.295Z,10.02
2022-11-26T12:28:03.920Z,9.30
2022-11-26T12:32:14.556Z,9.20
2022-11-26T12:36:24.936Z,11.90
2022-11-26T12:40:34.098Z,12.60
2022-11-26T12:44:40.565Z,15.45
2022-11-26T12:48:50.754Z,10.70
2022-11-26T12:53:03.770Z,9.48
2022-11-26T12:57:13.838Z,9.13
2022-11-26T13:01:16.844Z,10.95
2022-11-26T13:05:23.692Z,10.02
2022-11-26T13:09:41.889Z,9.57
2022-11-26T13:13:51.308Z,14.70
2022-11-26T13:17:54.187Z,9.82
2022-11-26T13:22:16.541Z,11.95
2022-11-26T13:26:34.543Z,11.07
2022-11-26T13:30:49.209Z,12.48
2022-11-26T13:35:04.062Z,17.85
2022-11-26T13:39:23.094Z,13.60
2022-11-26T13:43:54.543Z,13.00
2022-11-26T13:48:00.832Z,12.57
2022-11-26T13:52:09.589Z,13.30
2022-11-26T13:56:16.027Z,13.60
2022-11-26T14:04:54.717Z,16.20
2022-11-26T14:08:57.985Z,9.93
2022-11-26T14:13:19.669Z,10.30
2022-11-26T14:17:24.717Z,7.90
2022-11-26T14:21:30.557Z,9.02
2022-11-26T14:25:39.398Z,13.13
2022-11-26T14:29:42.365Z,9.40
2022-11-26T14:33:46.601Z,12.27
2022-11-26T14:37:55.680Z,14.55
2022-11-26T14:42:05.598Z,17.48
2022-11-26T14:46:14.695Z,14.20
2022-11-26T14:50:19.714Z,14.93
2022-11-26T14:54:28.780Z,12.63
2022-11-26T14:58:36.669Z,24.95
2022-11-26T15:02:41.990Z,16.05
2022-11-26T15:06:45.529Z,16.95
2022-11-26T15:10:53.167Z,17.20
2022-11-26T15:14:58.928Z,19.17
2022-11-26T15:19:03.028Z,26.48
2022-11-26T15:23:06.698Z,14.48
2022-11-26T15:27:29.254Z,15.98
2022-11-26T15:31:41.599Z,13.10
2022-11-26T15:35:44.677Z,20.00
2022-11-26T15:39:47.421Z,31.52
2022-11-26T15:43:54.835Z,29.58
2022-11-26T15:47:57.900Z,21.20
2022-11-26T15:52:04.369Z,25.15
2022-11-26T15:56:10.107Z,23.80
2022-11-26T16:00:22.605Z,23.55
2022-11-26T16:04:40.905Z,22.35
2022-11-26T16:08:59.461Z,26.25
2022-11-26T16:13:23.007Z,20.33
2022-11-26T16:17:27.166Z,22.08
2022-11-26T16:21:32.484Z,22.15
2022-11-26T16:25:36.531Z,22.35
2022-11-26T16:29:39.224Z,26.00
2022-11-26T16:33:43.817Z,14.60
2022-11-26T16:37:46.639Z,17.52
2022-11-26T16:41:49.353Z,17.33
2022-11-26T16:45:56.375Z,15.15
2022-11-26T16:50:00.509Z,17.27
2022-11-26T16:54:03.401Z,19.17
2022-11-26T16:58:07.956Z,31.30
2022-11-26T17:02:17.383Z,25.77
2022-11-26T17:06:26.234Z,22.90
2022-11-26T17:10:30.927Z,24.25
2022-11-26T17:14:33.647Z,30.65
2022-11-26T17:18:36.369Z,20.85
2022-11-26T17:22:40.461Z,22.52
2022-11-26T17:26:43.219Z,18.75
2022-11-26T17:30:46.151Z,21.17
2022-11-26T17:34:49.100Z,21.00
2022-11-26T17:38:53.160Z,20.25
2022-11-26T17:42:56.234Z,18.35
2022-11-26T17:47:16.456Z,23.38
2022-11-26T17:51:20.267Z,21.17
2022-11-26T17:55:26.057Z,20.42
2022-11-26T17:59:29.064Z,26.10
2022-11-26T18:03:31.780Z,25.48
2022-11-26T18:07:34.747Z,23.15
2022-11-26T18:11:47.107Z,30.23
2022-11-26T18:15:49.871Z,34.17
2022-11-26T18:19:52.805Z,33.95
2022-11-26T18:23:55.560Z,33.13
2022-11-26T18:27:59.616Z,34.22
2022-11-26T18:32:02.315Z,28.77
2022-11-26T18:36:05.388Z,22.23
2022-11-26T18:40:11.131Z,28.83
2022-11-26T18:44:15.247Z,24.08
2022-11-26T18:48:17.984Z,21.48
2022-11-26T18:52:20.766Z,28.52
2022-11-26T18:56:24.793Z,25.08
2022-11-26T19:00:28.886Z,22.75
2022-11-26T19:04:31.761Z,31.85
2022-11-26T19:08:35.608Z,26.08
2022-11-26T19:12:38.302Z,28.73
2022-11-26T19:16:44.056Z,23.90
2022-11-26T19:20:48.627Z,27.52
2022-11-26T19:24:51.365Z,28.42
2022-11-26T19:28:54.357Z,29.13
2022-11-26T19:32:58.475Z,39.33
2022-11-26T19:37:01.186Z,30.10
2022-11-26T19:41:04.796Z,27.15
2022-11-26T19:45:08.535Z,37.35
2022-11-26T19:49:13.314Z,34.38
2022-11-26T19:53:16.090Z,36.65
2022-11-26T19:57:19.137Z,37.22
2022-11-26T20:01:22.903Z,40.83
2022-11-26T20:05:27.038Z,40.00
2022-11-26T20:09:29.814Z,39.88
2022-11-26T20:13:34.750Z,43.67
2022-11-26T20:17:37.492Z,53.53
2022-11-26T20:21:41.885Z,51.35
2022-11-26T20:25:44.726Z,53.33
2022-11-26T20:29:47.461Z,47.60
2022-11-26T20:33:50.169Z,49.17
2022-11-26T20:37:54.249Z,49.15
2022-11-26T20:41:57.018Z,42.78
2022-11-26T20:46:03.546Z,46.25
2022-11-26T20:50:07.818Z,41.05
2022-11-26T20:54:11.908Z,35.58
2022-11-26T20:58:14.662Z,32.53
2022-11-26T21:02:17.419Z,30.85
2022-11-26T21:06:28.807Z,32.00
2022-11-26T21:10:33.340Z,36.13
2022-11-26T21:14:36.080Z,26.92
2022-11-26T21:18:39.009Z,28.02
2022-11-26T21:22:41.816Z,33.22
2022-11-26T21:26:45.941Z,25.20
2022-11-26T21:30:48.842Z,30.58
2022-11-26T21:34:51.596Z,31.20
2022-11-26T21:38:54.646Z,20.60
2022-11-26T21:42:58.835Z,21.63
2022-11-26T21:47:03.725Z,25.13
2022-11-26T21:51:08.072Z,22.50
2022-11-26T21:55:11.057Z,27.75
2022-11-26T21:59:15.240Z,22.33
2022-11-26T22:03:17.910Z,20.85
2022-11-26T22:07:20.803Z,19.40
2022-11-26T22:11:25.658Z,20.98
2022-11-26T22:15:29.793Z,17.67
2022-11-26T22:19:32.561Z,18.60
2022-11-26T22:23:36.105Z,21.80
2022-11-26T22:27:38.859Z,21.75
2022-11-26T22:31:43.854Z,22.80
2022-11-26T22:35:46.642Z,17.25
2022-11-26T22:39:53.630Z,22.70
2022-11-26T22:43:56.870Z,21.50
2022-11-26T22:48:00.986Z,25.50
2022-11-26T22:52:03.781Z,16.95
2022-11-26T22:56:07.332Z,23.15
2022-11-26T23:00:15.296Z,24.60
2022-11-26T23:04:19.532Z,23.70
2022-11-26T23:08:22.962Z,18.73
2022-11-26T23:12:25.679Z,21.75
2022-11-26T23:16:29.156Z,23.38
2022-11-26T23:20:33.376Z,24.73
2022-11-26T23:24:36.138Z,22.63
2022-11-26T23:28:39.112Z,26.13
2022-11-26T23:32:41.870Z,27.15
2022-11-26T23:36:45.944Z,26.20
2022-11-26T23:40:53.623Z,24.95
2022-11-26T23:44:56.353Z,21.05
2022-11-26T23:48:59.394Z,24.20
2022-11-26T23:53:03.493Z,26.27
2022-11-26T23:57:10.434Z,20.98
